Time;durP1;ratioP1;P1;durP2;ratioP2;P2;SDS_P1;SDS_P2;PMS_P1;PMS_P2;Temp;Humidity;BMP_temperature;BMP_pressure;BME280_temperature;BME280_humidity;BME280_pressure;Samples;Min_cycle;Max_cycle;Signal;HPM_P1;HPM_P2
2021/10/22 00:00:00;;;;;;;9.10;8.40;;;;;;;;;;5073565;28;20161;-75
2021/10/22 00:02:27;;;;;;;9.05;8.40;;;;;;;;;;5073509;28;20024;-75
2021/10/22 00:04:55;;;;;;;8.52;7.88;;;;;;;;;;5074629;28;20024;-75
2021/10/22 00:07:23;;;;;;;8.23;7.60;;;;;;;;;;5074770;28;20017;-75
2021/10/22 00:09:50;;;;;;;7.68;7.07;;;;;;;;;;5073422;28;20103;-75
2021/10/22 00:12:18;;;;;;;8.05;7.45;;;;;;;;;;5073278;28;20435;-76
2021/10/22 00:14:45;;;;;;;7.45;6.97;;;;;;;;;;5075015;28;20449;-75
2021/10/22 00:17:12;;;;;;;7.45;6.85;;;;;;;;;;5072952;28;20076;-76
2021/10/22 00:19:40;;;;;;;6.20;5.80;;;24.30;99.90;;;;;;5073038;28;20032;-76
2021/10/22 00:22:07;;;;;;;6.30;5.80;;;24.20;99.90;;;;;;5073098;28;20035;-76
2021/10/22 00:24:35;;;;;;;6.18;5.65;;;;;;;;;;5073189;28;20024;-77
2021/10/22 00:27:03;;;;;;;5.72;5.10;;;;;;;;;;5074420;28;20021;-78
2021/10/22 00:29:30;;;;;;;7.25;5.03;;;;;;;;;;5074379;28;20389;-76
2021/10/22 00:31:57;;;;;;;7.10;4.45;;;;;;;;;;5074248;28;20050;-76
2021/10/22 00:34:25;;;;;;;4.68;4.38;;;;;;;;;;5072977;28;20024;-74
2021/10/22 00:36:52;;;;;;;5.20;4.72;;;;;;;;;;5074027;28;20357;-74
2021/10/22 00:39:20;;;;;;;5.07;4.20;;;;;;;;;;5072638;28;20437;-75
2021/10/22 00:41:47;;;;;;;4.20;3.90;;;;;;;;;;5072570;28;20028;-75
2021/10/22 00:44:14;;;;;;;4.43;3.90;;;;;;;;;;5073857;28;20017;-75
2021/10/22 00:46:41;;;;;;;4.10;3.40;;;;;;;;;;5073815;28;20020;-75
2021/10/22 00:49:10;;;;;;;3.45;3.15;;;;;;;;;;5073682;28;20023;-75
2021/10/22 00:51:38;;;;;;;4.55;3.90;;;;;;;;;;5072333;28;20119;-75
2021/10/22 00:54:06;;;;;;;3.97;3.67;;;;;;;;;;5073666;28;20021;-74
2021/10/22 00:56:34;;;;;;;7.00;4.45;;;;;;;;;;5073699;28;20489;-75
2021/10/22 00:59:03;;;;;;;3.70;3.47;;;;;;;;;;5072318;28;20457;-75
2021/10/22 01:01:31;;;;;;;5.43;3.95;;;;;;;;;;5073684;28;20103;-75
2021/10/22 01:03:58;;;;;;;5.28;3.80;;;;;;;;;;5073369;28;20500;-74
2021/10/22 01:06:25;;;;;;;5.28;4.13;;;;;;;;;;5073457;28;20051;-74
2021/10/22 01:08:52;;;;;;;3.90;3.60;;;;;;;;;;5072063;28;20017;-75
2021/10/22 01:11:20;;;;;;;5.18;4.20;;;;;;;;;;5071976;28;20052;-72
2021/10/22 01:13:47;;;;;;;5.10;4.13;;;;;;;;;;5073344;28;20029;-75
2021/10/22 01:16:15;;;;;;;5.22;3.83;;;;;;;;;;5071970;28;20500;-74
2021/10/22 01:18:42;;;;;;;4.60;3.67;;;;;;;;;;5072287;28;20036;-74
2021/10/22 01:21:11;;;;;;;3.85;3.35;;;;;;;;;;5073153;28;20077;-74
2021/10/22 01:23:39;;;;;;;3.60;3.30;;;;;;;;;;5073245;28;20012;-74
2021/10/22 01:26:06;;;;;;;3.88;3.40;;;;;;;;;;5073263;28;20398;-73
2021/10/22 01:28:33;;;;;;;3.38;3.15;;;;;;;;;;5073105;28;20385;-73
2021/10/22 01:31:01;;;;;;;3.20;2.90;;;;;;;;;;5073036;28;20028;-73
2021/10/22 01:33:29;;;;;;;4.90;3.53;;;;;;;;;;5073082;28;20078;-74
2021/10/22 01:35:56;;;;;;;4.05;3.50;;;;;;;;;;5073164;28;20020;-74
2021/10/22 01:38:25;;;;;;;3.85;3.55;;;;;;;;;;5073109;28;20020;-75
2021/10/22 01:40:58;;;;;;;4.00;3.20;;;;;;;;;;5071573;28;20025;-74
2021/10/22 01:43:26;;;;;;;3.50;3.30;;;;;;;;;;5071721;28;20441;-73
2021/10/22 01:45:54;;;;;;;3.50;3.20;;;;;;;;;;5071644;28;20022;-74
2021/10/22 01:48:21;;;;;;;3.15;2.85;;;;;;;;;;5071646;28;20025;-74
2021/10/22 01:50:48;;;;;;;4.25;3.20;;;;;;;;;;5072907;28;20021;-74
2021/10/22 01:53:17;;;;;;;4.32;3.00;;;;;;;;;;5073010;28;20028;-74
2021/10/22 01:55:44;;;;;;;4.03;3.08;;;;;;;;;;5072873;28;20089;-74
2021/10/22 01:58:12;;;;;;;3.45;2.90;;;;;;;;;;5072935;28;20032;-74
2021/10/22 02:00:39;;;;;;;2.60;2.40;;;;;;;;;;5073023;28;20584;-75
2021/10/22 02:03:06;;;;;;;2.97;2.30;;;;;;;;;;5072827;28;20016;-74
2021/10/22 02:05:33;;;;;;;2.60;2.40;;;;;;;;;;5072818;28;20017;-74
2021/10/22 02:08:01;;;;;;;2.83;2.33;;;;;;;;;;5071521;28;20108;-74
2021/10/22 02:10:28;;;;;;;3.05;2.22;;;;;;;;;;5071587;28;20071;-73
2021/10/22 02:12:55;;;;;;;2.70;2.50;;;;;;;;;;5072847;28;20016;-74
2021/10/22 02:15:22;;;;;;;2.78;2.40;;;;;;;;;;5071638;28;20028;-74
2021/10/22 02:17:50;;;;;;;3.53;2.42;;;;;;;;;;5072685;28;20044;-74
2021/10/22 02:20:17;;;;;;;2.75;2.55;;;;;;;;;;5072003;28;20040;-74
2021/10/22 02:22:44;;;;;;;2.60;2.40;;;;;;;;;;5076729;28;20017;-73
2021/10/22 02:25:11;;;;;;;2.88;2.67;;;;;;;;;;5075460;28;20028;-74
2021/10/22 02:27:38;;;;;;;3.00;2.80;;;;;;;;;;5075327;28;20111;-74
2021/10/22 02:30:06;;;;;;;4.53;3.08;;;;;;;;;;5076581;28;20370;-74
2021/10/22 02:32:33;;;;;;;3.38;2.70;;;;;;;;;;5075485;28;20078;-73
2021/10/22 02:35:00;;;;;;;2.90;2.70;;;;;;;;;;5075048;28;20051;-74
2021/10/22 02:37:27;;;;;;;3.00;2.50;;;;;;;;;;5076289;28;20025;-74
2021/10/22 02:39:55;;;;;;;5.18;3.10;;;;;;;;;;5074761;28;20020;-73
2021/10/22 02:42:22;;;;;;;2.90;2.70;;;;;;;;;;5076282;28;20473;-73
2021/10/22 02:44:49;;;;;;;6.22;2.90;;;;;;;;;;5074934;28;20028;-73
2021/10/22 02:47:16;;;;;;;2.75;2.30;;;;;;;;;;5074762;28;20027;-73
2021/10/22 02:49:44;;;;;;;4.60;2.22;;;;;;;;;;5074745;28;20024;-74
2021/10/22 02:52:11;;;;;;;2.53;2.30;;;;;;;;;;5074808;28;20032;-73
2021/10/22 02:54:38;;;;;;;3.63;2.40;;;;;;;;;;5074709;28;20024;-74
2021/10/22 02:57:05;;;;;;;3.35;2.30;;;;;;;;;;5076207;28;20070;-75
2021/10/22 02:59:32;;;;;;;2.20;2.00;;;;;;;;;;5075889;28;20021;-74
2021/10/22 03:01:59;;;;;;;3.63;2.58;;;;;;;;;;5075797;28;20043;-74
2021/10/22 03:04:26;;;;;;;4.82;2.30;;;;;;;;;;5074435;28;20107;-74
2021/10/22 03:06:54;;;;;;;5.10;2.50;;;;;;;;;;5075819;28;20020;-75
2021/10/22 03:09:21;;;;;;;3.97;2.50;;;;;;;;;;5076131;28;20023;-78
2021/10/22 03:11:48;;;;;;;4.25;2.63;;;;;;;;;;5074622;28;20024;-77
2021/10/22 03:14:15;;;;;;;3.75;2.33;;;26.50;99.90;;;;;;5076059;28;20021;-78
2021/10/22 03:16:43;;;;;;;2.40;2.15;;;26.70;99.90;;;;;;5075717;28;20049;-77
2021/10/22 03:19:13;;;;;;;2.40;2.20;;;;;;;;;;5075821;28;20017;-78
2021/10/22 03:21:41;;;;;;;2.95;2.20;;;;;;;;;;5074272;28;20511;-78
2021/10/22 03:24:08;;;;;;;4.32;2.60;;;;;;;;;;5075226;28;20032;-75
2021/10/22 03:26:38;;;;;;;3.78;3.08;;;;;;;;;;5075242;28;20440;-73
2021/10/22 03:29:05;;;;;;;2.85;2.63;;;;;;;;;;5074069;28;20025;-77
2021/10/22 03:31:34;;;;;;;2.85;2.42;;;;;;;;;;5074660;28;20126;-77
2021/10/22 03:34:02;;;;;;;4.75;2.80;;;;;;;;;;5073706;28;20021;-80
2021/10/22 03:36:29;;;;;;;4.03;2.72;;;;;;;;;;5073825;28;20097;-77
2021/10/22 03:38:56;;;;;;;3.72;2.70;;;;;;;;;;5073718;28;20120;-77
2021/10/22 03:41:23;;;;;;;4.80;2.22;;;;;;;;;;5073348;28;20029;-76
2021/10/22 03:43:52;;;;;;;6.40;2.10;;;;;;;;;;5075175;28;20025;-75
2021/10/22 03:46:19;;;;;;;4.10;2.50;;;;;;;;;;5073723;28;20073;-76
2021/10/22 03:48:46;;;;;;;3.85;2.60;;;;;;;;;;5074948;28;20435;-75
2021/10/22 03:51:14;;;;;;;4.13;2.30;;;;;;;;;;5074752;28;20069;-75
2021/10/22 03:53:41;;;;;;;3.97;2.30;;;;;;;;;;5073541;28;20085;-79
2021/10/22 03:56:08;;;;;;;3.15;2.42;;;;;;;;;;5074748;28;20070;-75
2021/10/22 03:58:36;;;;;;;6.22;2.78;;;;;;;;;;5074620;28;20082;-76
2021/10/22 04:01:03;;;;;;;4.38;2.20;;;;;;;;;;5072976;28;20509;-75
2021/10/22 04:03:30;;;;;;;3.78;2.20;;;;;;;;;;5074407;28;20012;-76
2021/10/22 04:05:57;;;;;;;3.78;2.20;;;;;;;;;;5073109;28;20020;-76
2021/10/22 04:08:24;;;;;;;4.63;2.10;;;;;;;;;;5073072;28;20051;-76
2021/10/22 04:10:51;;;;;;;3.58;2.33;;;;;;;;;;5074394;28;20035;-76
2021/10/22 04:13:19;;;;;;;5.45;2.28;;;;;;;;;;5072987;28;20020;-75
2021/10/22 04:15:47;;;;;;;5.28;2.88;;;;;;;;;;5072998;28;20052;-75
2021/10/22 04:18:15;;;;;;;4.78;2.70;;;;;;;;;;5073223;28;20059;-76
2021/10/22 04:20:45;;;;;;;7.05;2.55;;;;;;;;;;5074247;28;20396;-76
2021/10/22 04:23:13;;;;;;;4.80;3.00;;;;;;;;;;5072661;28;20108;-78
2021/10/22 04:25:40;;;;;;;6.15;3.10;;;;;;;;;;5056752;28;20032;-77
2021/10/22 04:28:08;;;;;;;5.88;2.80;;;;;;;;;;5074073;28;20021;-77
2021/10/22 04:30:35;;;;;;;6.60;3.00;;;;;;;;;;5074108;28;20421;-78
2021/10/22 04:33:02;;;;;;;3.45;2.58;;;;;;;;;;5074080;28;20025;-76
2021/10/22 04:35:31;;;;;;;4.70;2.90;;;;;;;;;;5074037;28;20111;-76
2021/10/22 04:40:32;;;;;;;4.63;2.50;;;;;;;;;;5073895;28;20056;-76
2021/10/22 04:43:02;;;;;;;4.45;2.65;;;;;;;;;;5073651;28;20029;-75
2021/10/22 04:45:29;;;;;;;5.25;3.05;;;;;;;;;;5072463;28;20020;-76
2021/10/22 04:47:57;;;;;;;6.47;2.72;;;;;;;;;;5073814;28;20542;-75
2021/10/22 04:50:24;;;;;;;6.18;2.90;;;;;;;;;;5073720;28;20025;-75
2021/10/22 04:52:54;;;;;;;3.55;2.78;;;;;;;;;;5073785;28;20389;-76
2021/10/22 04:55:22;;;;;;;5.03;3.03;;;;;;;;;;5072447;28;20020;-75
2021/10/22 04:57:50;;;;;;;4.40;2.90;;;;;;;;;;5073046;28;20028;-72
2021/10/22 05:00:18;;;;;;;5.65;3.30;;;;;;;;;;5072372;28;20400;-73
2021/10/22 05:02:45;;;;;;;6.45;3.20;;;;;;;;;;5072517;28;20016;-73
2021/10/22 05:05:13;;;;;;;4.80;2.80;;;;;;;;;;5073723;28;20477;-77
2021/10/22 05:07:40;;;;;;;6.43;3.20;;;;;;;;;;5073350;28;20012;-76
2021/10/22 05:10:08;;;;;;;11.30;4.07;;;;;;;;;;5071908;28;20033;-76
2021/10/22 05:12:35;;;;;;;6.40;3.63;;;;;;;;;;5073292;28;20074;-77
2021/10/22 05:15:04;;;;;;;4.63;2.95;;;;;;;;;;5072237;28;20501;-75
2021/10/22 05:17:34;;;;;;;6.18;3.30;;;;;;;;;;5071983;28;20044;-75
2021/10/22 05:20:02;;;;;;;6.53;3.20;;;;;;;;;;5072926;28;20031;-75
2021/10/22 05:22:29;;;;;;;6.55;2.88;;;;;;;;;;5073023;28;20102;-75
2021/10/22 05:24:59;;;;;;;5.00;2.90;;;;;;;;;;5072975;28;20489;-75
2021/10/22 05:27:26;;;;;;;5.88;3.10;;;;;;;;;;5071848;28;20020;-75
2021/10/22 05:29:53;;;;;;;7.60;3.42;;;;;;;;;;5071447;28;20116;-75
2021/10/22 05:32:21;;;;;;;5.03;3.13;;;;;;;;;;5072772;28;20052;-75
2021/10/22 05:34:48;;;;;;;6.45;3.20;;;;;;;;;;5072714;28;20017;-78
2021/10/22 05:37:15;;;;;;;6.63;3.70;;;;;;;;;;5072012;28;20099;-82
2021/10/22 05:39:42;;;;;;;7.10;3.40;;;;;;;;;;5075086;28;20032;-81
2021/10/22 05:42:09;;;;;;;6.47;3.97;;;;;;;;;;5077487;28;20081;-80
2021/10/22 05:44:36;;;;;;;6.10;3.30;;;;;;;;;;5075757;28;20031;-83
2021/10/22 05:47:04;;;;;;;7.95;3.25;;;;;;;;;;5074993;28;20079;-81
2021/10/22 05:49:31;;;;;;;11.43;4.32;;;;;;;;;;5076692;28;20147;-84
2021/10/22 05:51:58;;;;;;;4.45;3.15;;;;;;;;;;5076188;28;20025;-82
2021/10/22 05:54:26;;;;;;;5.20;3.05;;;;;;;;;;5072825;28;20029;-79
2021/10/22 05:56:53;;;;;;;6.30;3.17;;;;;;;;;;5071606;28;20020;-81
2021/10/22 05:59:20;;;;;;;5.22;2.85;;;;;;;;;;5072155;28;20052;-79
2021/10/22 06:01:48;;;;;;;4.28;3.00;;;;;;;;;;5071567;28;20029;-78
2021/10/22 06:04:15;;;;;;;6.55;3.25;;;;;;;;;;5055356;28;20107;-80
2021/10/22 06:06:42;;;;;;;7.60;2.90;;;;;;;;;;5073027;28;20017;-79
2021/10/22 06:09:12;;;;;;;6.38;3.40;;;;;;;;;;5073136;28;20509;-82
2021/10/22 06:11:39;;;;;;;5.73;3.20;;;;;;;;;;5074373;28;20104;-79
2021/10/22 06:14:06;;;;;;;5.50;2.95;;;;;;;;;;5073259;28;20025;-83
2021/10/22 06:16:34;;;;;;;5.60;3.15;;;;;;;;;;5074288;28;20055;-84
2021/10/22 06:19:03;;;;;;;6.03;3.10;;;;;;;;;;5072934;28;20040;-82
2021/10/22 06:21:54;;;;;;;5.45;2.92;;;;;;;;;;5074030;28;20036;-81
2021/10/22 06:24:22;;;;;;;5.70;3.35;;;;;;;;;;5073372;28;20017;-80
2021/10/22 06:26:50;;;;;;;5.68;3.50;;;;;;;;;;5073002;28;20081;-79
2021/10/22 06:29:17;;;;;;;6.07;3.75;;;;;;;;;;5073273;28;20021;-81
2021/10/22 06:31:44;;;;;;;6.15;3.40;;;;;;;;;;5074257;28;20119;-79
2021/10/22 06:34:11;;;;;;;5.75;3.30;;;;;;;;;;5072523;28;20024;-77
2021/10/22 06:36:39;;;;;;;4.82;3.08;;;;;;;;;;5073118;28;20099;-76
2021/10/22 06:39:06;;;;;;;7.43;3.03;;;;;;;;;;5072459;28;20128;-77
2021/10/22 06:41:37;;;;;;;5.45;3.22;;;;;;;;;;5072895;28;20025;-79
2021/10/22 06:44:05;;;;;;;5.85;3.20;;;;;;;;;;5073013;28;20477;-79
2021/10/22 06:46:33;;;;;;;7.25;3.03;;;;;;;;;;5072448;28;20031;-76
2021/10/22 06:49:01;;;;;;;6.78;3.47;;;;;;;;;;5072796;28;20108;-79
2021/10/22 06:51:28;;;;;;;6.18;3.20;;;;;;;;;;5072516;28;20126;-78
2021/10/22 06:53:55;;;;;;;7.10;2.90;;;;;;;;;;5071532;28;20465;-77
2021/10/22 06:56:22;;;;;;;6.95;3.22;;;;;;;;;;5070977;28;20036;-77
2021/10/22 06:58:52;;;;;;;;;;;;;;;;;;5073149;28;20040;-78
2021/10/22 07:01:19;;;;;;;5.25;3.20;;;;;;;;;;5072330;28;20003;-80
2021/10/22 07:03:46;;;;;;;5.57;3.28;;;;;;;;;;5070747;28;20422;-79
2021/10/22 07:08:59;;;;;;;5.80;3.65;;;;;;;;;;5079311;28;20028;-82
2021/10/22 07:11:26;;;;;;;5.85;3.42;;;;;;;;;;5076726;28;20016;-81
2021/10/22 07:13:55;;;;;;;5.78;3.53;;;;;;;;;;5076001;28;20039;-81
2021/10/22 07:16:23;;;;;;;6.25;3.33;;;;;;;;;;5058305;28;20025;-80
2021/10/22 07:18:51;;;;;;;4.78;3.28;;;;;;;;;;5076943;28;20036;-81
2021/10/22 07:21:19;;;;;;;6.18;4.03;;;;;;;;;;5080241;28;20107;-81
2021/10/22 07:23:48;;;;;;;5.15;3.10;;;;;;;;;;5081631;28;20113;-82
2021/10/22 07:26:16;;;;;;;6.90;3.58;;;;;;;;;;5083046;28;20420;-81
2021/10/22 07:28:43;;;;;;;6.18;3.50;;;;;;;;;;5075883;28;20017;-81
2021/10/22 07:31:11;;;;;;;5.88;3.60;;;;;;;;;;5074560;28;20401;-80
2021/10/22 07:33:39;;;;;;;8.60;4.25;;;;;;;;;;5074380;28;20020;-82
2021/10/22 07:36:12;;;;;;;5.32;4.43;;;;;;;;;;5076297;28;20060;-79
2021/10/22 07:38:41;;;;;;;7.05;5.40;;;;;;;;;;5075258;28;20033;-78
2021/10/22 07:41:08;;;;;;;5.35;4.60;;;;;;;;;;5074492;28;20546;-78
2021/10/22 07:43:37;;;;;;;6.20;4.65;;;;;;;;;;5074145;28;20020;-79
2021/10/22 07:46:05;;;;;;;8.52;4.43;;;;;;;;;;5074048;28;20033;-78
2021/10/22 07:48:33;;;;;;;7.15;5.40;;;;;;;;;;5075801;28;20090;-79
2021/10/22 07:51:00;;;;;;;6.50;5.22;;;;;;;;;;5075741;28;20406;-78
2021/10/22 07:53:27;;;;;;;9.35;5.35;;;;;;;;;;5075483;28;20099;-80
2021/10/22 07:55:56;;;;;;;8.15;6.15;;;;;;;;;;5074090;28;20083;-79
2021/10/22 07:58:23;;;;;;;9.05;5.85;;;;;;;;;;5074275;28;20028;-79
2021/10/22 08:00:51;;;;;;;7.18;6.45;;;;;;;;;;5075498;28;20082;-80
2021/10/22 08:03:18;;;;;;;9.77;6.90;;;;;;;;;;5073694;28;20044;-79
2021/10/22 08:05:45;;;;;;;8.18;7.40;;;;;;;;;;5075219;28;20431;-79
2021/10/22 08:08:12;;;;;;;8.57;7.75;;;;;;;;;;5073936;28;20107;-78
2021/10/22 08:10:40;;;;;;;10.45;8.98;;;;;;;;;;5073901;28;20024;-78
2021/10/22 08:13:10;;;;;;;9.05;8.13;;;;;;;;;;5074052;28;20435;-79
2021/10/22 08:15:37;;;;;;;;;;;;;;;;;;5074346;28;20070;-78
2021/10/22 08:18:04;;;;;;;9.43;8.52;;;;;;;;;;5074205;28;20045;-81
2021/10/22 08:20:34;;;;;;;9.13;8.27;;;;;;;;;;5075494;28;20469;-79
2021/10/22 08:23:02;;;;;;;9.73;8.93;;;;;;;;;;5075535;28;20012;-78
2021/10/22 08:25:29;;;;;;;9.75;8.65;;;;;;;;;;5075042;28;20017;-77
2021/10/22 08:27:56;;;;;;;9.23;8.52;;;;;;;;;;5074632;28;20275;-78
2021/10/22 08:30:26;;;;;;;9.68;8.98;;;;;;;;;;5073675;28;20028;-77
2021/10/22 08:32:57;;;;;;;9.85;9.15;;;;;;;;;;5075209;28;20021;-80
2021/10/22 08:35:23;;;;;;;;;;;;;;;;;;5074390;28;20082;-76
2021/10/22 08:37:51;;;;;;;11.20;10.20;;;;;;;;;;5073152;28;20369;-77
2021/10/22 08:40:19;;;;;;;11.80;10.18;;;;;;;;;;5073012;28;20538;-77
2021/10/22 08:42:48;;;;;;;10.40;9.50;;;;;;;;;;5056540;28;20021;-78
2021/10/22 08:45:16;;;;;;;11.50;10.40;;;;;;;;;;5073474;28;20119;-77
2021/10/22 08:47:43;;;;;;;11.07;10.00;;;;;;;;;;5074200;28;20362;-76
2021/10/22 08:50:12;;;;;;;11.68;10.73;;;;;;;;;;5073016;28;20078;-77
2021/10/22 08:52:40;;;;;;;11.02;9.95;;;;;;;;;;5074172;28;20025;-78
2021/10/22 08:55:08;;;;;;;12.13;10.82;;;;;;;;;;5074810;28;20050;-78
2021/10/22 08:57:39;;;;;;;12.25;11.20;;;;;;;;;;5074193;28;20103;-77
2021/10/22 09:00:05;;;;;;;;;;;;;;;;;;5073633;28;20074;-78
2021/10/22 09:02:33;;;;;;;13.05;11.93;;;;;;;;;;5073247;28;20377;-79
2021/10/22 09:05:16;;;;;;;12.52;11.38;;;;;;;;;;5074124;28;20017;-78
2021/10/22 09:07:50;;;;;;;12.82;11.60;;;;;;;;;;5072571;28;20016;-77
2021/10/22 09:10:19;;;;;;;16.27;11.55;;;;;;;;;;5072350;28;20032;-77
2021/10/22 09:12:48;;;;;;;13.18;11.48;;;;;;;;;;5073506;28;20048;-79
2021/10/22 09:15:19;;;;;;;12.77;11.23;;;;;;;;;;5072933;28;20050;-79
2021/10/22 09:17:50;;;;;;;12.50;11.27;;;;;;;;;;5074122;28;20076;-80
2021/10/22 09:20:18;;;;;;;11.80;10.68;;;;;;;;;;5074278;28;20032;-79
2021/10/22 09:22:52;;;;;;;13.02;11.70;;;;;;;;;;5074032;28;20012;-80
2021/10/22 09:25:21;;;;;;;12.27;11.27;;;;;;;;;;5074070;28;20071;-78
2021/10/22 09:27:58;;;;;;;12.32;11.30;;;;;;;;;;5072735;28;20066;-78
2021/10/22 09:30:25;;;;;;;15.30;11.68;;;;;;;;;;5073857;28;20025;-78
2021/10/22 09:32:53;;;;;;;13.10;11.98;;;;;;;;;;5072655;28;20066;-79
2021/10/22 09:35:34;;;;;;;12.35;11.40;;;;;;;;;;5074363;28;20367;-78
2021/10/22 09:38:23;;;;;;;12.95;11.80;;;;;;;;;;5072507;28;20457;-78
2021/10/22 09:40:55;;;;;;;12.30;11.30;;;;;;;;;;5072758;28;20028;-78
2021/10/22 09:43:26;;;;;;;12.48;11.25;;;;;;;;;;5073884;28;20031;-79
2021/10/22 09:46:20;;;;;;;13.40;11.98;;;;;;;;;;5072012;28;20020;-77
2021/10/22 09:48:48;;;;;;;13.13;12.02;;;;;;;;;;5072835;28;20036;-78
2021/10/22 09:51:22;;;;;;;12.65;11.75;;;;;;;;;;5075047;28;20029;-78
2021/10/22 09:53:49;;;;;;;12.35;11.45;;;;;;;;;;5074906;28;20389;-79
2021/10/22 09:56:22;;;;;;;12.57;11.40;;;;;;;;;;5072389;28;20025;-78
2021/10/22 09:59:00;;;;;;;13.18;11.88;;;;;;;;;;5072816;28;20028;-79
2021/10/22 10:01:32;;;;;;;12.38;11.27;;;;;;;;;;5074503;28;20032;-77
2021/10/22 10:04:00;;;;;;;11.88;10.93;;;;;;;;;;5073922;28;20031;-78
2021/10/22 10:06:29;;;;;;;11.85;10.75;;;;;;;;;;5073636;28;20096;-78
2021/10/22 10:08:56;;;;;;;12.25;11.15;;;;;;;;;;5072745;28;20098;-78
2021/10/22 10:11:24;;;;;;;12.82;11.75;;;;;;;;;;5073944;28;20020;-78
2021/10/22 10:13:52;;;;;;;13.38;12.00;;;;;;;;;;5072730;28;20448;-78
2021/10/22 10:16:19;;;;;;;13.13;11.93;;;;;;;;;;5072216;28;20511;-77
2021/10/22 10:19:06;;;;;;;12.50;11.50;;;;;;;;;;5074258;28;20068;-79
2021/10/22 10:21:41;;;;;;;12.50;11.20;;;;;;;;;;5072172;28;20028;-78
2021/10/22 10:24:10;;;;;;;11.48;10.77;;;;;;;;;;5072328;28;20035;-78
2021/10/22 10:26:37;;;;;;;13.82;11.32;;;;;;;;;;5072566;28;20424;-78
2021/10/22 10:29:07;;;;;;;12.43;11.27;;;;;;;;;;5072605;28;20021;-79
2021/10/22 10:31:36;;;;;;;12.13;11.27;;;;;;;;;;5072289;28;20035;-78
2021/10/22 10:34:23;;;;;;;13.63;12.53;;;;;;;;;;5072327;28;20035;-79
2021/10/22 10:36:52;;;;;;;13.10;12.00;;;;;;;;;;5072164;28;20032;-78
2021/10/22 10:39:44;;;;;;;12.77;11.73;;;18.90;99.90;;;;;;5073478;28;20493;-79
2021/10/22 10:42:34;;;;;;;12.75;11.75;;;18.90;99.90;;;;;;5073725;28;20436;-78
2021/10/22 10:45:07;;;;;;;13.50;12.27;;;18.90;99.90;;;;;;5076700;28;20024;-78
2021/10/22 10:47:48;;;;;;;13.40;12.40;;;18.80;99.90;;;;;;5076473;28;20166;-79
2021/10/22 10:50:17;;;;;;;13.18;12.18;;;18.70;99.90;;;;;;5075676;28;20481;-78
2021/10/22 10:52:47;;;;;;;14.13;13.02;;;18.70;99.90;;;;;;5076835;28;20411;-78
2021/10/22 10:55:30;;;;;;;13.75;12.45;;;18.60;99.90;;;;;;5075934;28;20470;-79
2021/10/22 10:58:09;;;;;;;13.50;12.60;;;18.60;99.90;;;;;;5076756;28;20491;-79
2021/10/22 11:00:46;;;;;;;13.15;12.27;;;18.60;99.90;;;;;;5075516;28;20111;-79
2021/10/22 11:03:27;;;;;;;13.60;12.50;;;18.60;99.90;;;;;;5076277;28;20025;-79
2021/10/22 11:05:57;;;;;;;13.40;12.40;;;18.60;99.90;;;;;;5075465;28;20115;-79
2021/10/22 11:08:26;;;;;;;13.73;12.57;;;18.50;99.90;;;;;;5075447;28;20466;-79
2021/10/22 11:11:35;;;;;;;13.18;12.13;;;18.50;99.90;;;;;;5076348;28;20048;-79
2021/10/22 11:14:05;;;;;;;12.57;11.68;;;18.50;99.90;;;;;;5076338;28;20078;-79
2021/10/22 11:16:47;;;;;;;12.68;11.60;;;18.50;99.90;;;;;;5074730;28;20120;-78
2021/10/22 11:19:21;;;;;;;12.13;11.40;;;18.40;99.90;;;;;;5074945;28;20564;-79
2021/10/22 11:21:51;;;;;;;12.55;11.65;;;18.40;99.90;;;;;;5076352;28;20052;-79
2021/10/22 11:24:25;;;;;;;13.05;12.05;;;18.40;99.90;;;;;;5076650;28;20040;-79
2021/10/22 11:27:16;;;;;;;13.48;12.43;;;18.40;99.90;;;;;;5075324;28;20025;-78
2021/10/22 11:29:52;;;;;;;12.48;11.68;;;18.30;99.90;;;;;;5075020;28;20493;-78
2021/10/22 11:32:25;;;;;;;13.90;12.63;;;18.40;99.90;;;;;;5074768;28;20024;-78
2021/10/22 11:35:02;;;;;;;13.02;12.13;;;18.40;99.90;;;;;;5075934;28;20021;-78
2021/10/22 11:37:38;;;;;;;12.23;11.40;;;18.40;99.90;;;;;;5075289;28;20036;-78
2021/10/22 11:40:10;;;;;;;13.25;12.15;;;18.40;99.90;;;;;;5074700;28;20107;-78
2021/10/22 11:42:38;;;;;;;13.40;12.40;;;18.40;99.90;;;;;;5074457;28;20016;-78
2021/10/22 11:45:15;;;;;;;13.30;12.30;;;18.30;99.90;;;;;;5075456;28;20417;-79
2021/10/22 11:47:51;;;;;;;12.50;11.60;;;18.20;99.90;;;;;;5073937;28;20024;-79
2021/10/22 11:50:31;;;;;;;13.70;12.70;;;18.20;99.90;;;;;;5075689;28;20028;-78
2021/10/22 11:53:04;;;;;;;13.10;12.30;;;18.20;99.90;;;;;;5074412;28;20078;-78
2021/10/22 11:55:32;;;;;;;12.73;11.93;;;18.20;99.90;;;;;;5075855;28;20021;-78
2021/10/22 11:58:08;;;;;;;12.50;11.60;;;18.10;99.90;;;;;;5075540;28;20024;-79
2021/10/22 12:00:56;;;;;;;12.25;11.50;;;18.10;99.90;;;;;;5075286;28;20025;-79
2021/10/22 12:03:54;;;;;;;12.75;12.00;;;18.10;99.90;;;;;;5075168;28;20099;-79
2021/10/22 12:06:27;;;;;;;13.05;11.98;;;18.10;99.90;;;;;;5074448;28;20461;-79
2021/10/22 12:08:59;;;;;;;13.05;12.05;;;18.00;99.90;;;;;;5074310;28;20388;-79
2021/10/22 12:11:29;;;;;;;13.20;12.30;;;18.00;99.90;;;;;;5073923;28;20032;-78
2021/10/22 12:13:56;;;;;;;12.48;11.65;;;17.90;99.90;;;;;;5075038;28;20056;-79
2021/10/22 12:16:33;;;;;;;13.15;12.05;;;18.00;99.90;;;;;;5073978;28;20020;-77
2021/10/22 12:19:01;;;;;;;12.40;11.60;;;17.90;99.90;;;;;;5075146;28;20070;-78
2021/10/22 12:21:35;;;;;;;11.90;11.27;;;17.90;99.90;;;;;;5073616;28;20021;-77
2021/10/22 12:24:10;;;;;;;12.82;11.82;;;17.80;99.90;;;;;;5075003;28;20017;-78
2021/10/22 12:26:37;;;;;;;13.10;12.05;;;17.90;99.90;;;;;;5075257;28;20027;-78
2021/10/22 12:29:13;;;;;;;13.30;12.40;;;17.90;99.90;;;;;;5073689;28;20028;-77
2021/10/22 12:31:50;;;;;;;12.77;11.80;;;;;;;;;;5073855;28;20032;-77
2021/10/22 12:34:26;;;;;;;12.98;11.90;;;;;;;;;;5075143;28;20035;-78
2021/10/22 12:37:14;;;;;;;12.68;11.57;;;;;;;;;;5073548;28;20112;-78
2021/10/22 12:39:48;;;;;;;12.80;12.00;;;;;;;;;;5073411;28;20029;-78
2021/10/22 12:42:23;;;;;;;12.35;11.55;;;;;;;;;;5073579;28;20048;-79
2021/10/22 12:44:51;;;;;;;12.32;11.40;;;;;;;;;;5073365;28;20021;-78
2021/10/22 12:47:19;;;;;;;12.52;11.65;;;;;;;;;;5073377;28;20427;-78
2021/10/22 12:49:50;;;;;;;12.10;11.30;;;;;;;;;;5074424;28;20095;-78
2021/10/22 12:52:18;;;;;;;11.63;10.98;;;;;;;;;;5074418;28;20048;-78
2021/10/22 12:54:49;;;;;;;12.15;11.45;;;;;;;;;;5073146;28;20040;-78
2021/10/22 12:57:24;;;;;;;12.35;11.65;;;;;;;;;;5074378;28;20094;-79
2021/10/22 12:59:51;;;;;;;13.02;11.90;;;;;;;;;;5073037;28;20492;-77
2021/10/22 13:02:25;;;;;;;12.65;11.73;;;;;;;;;;5072819;28;20028;-78
2021/10/22 13:05:10;;;;;;;11.90;11.20;;;;;;;;;;5072433;28;20035;-79
2021/10/22 13:10:31;;;;;;;12.77;11.88;;;;;;;;;;5074101;28;20508;-77
2021/10/22 13:13:03;;;;;;;12.75;11.90;;;;;;;;;;5072984;28;20104;-78
2021/10/22 13:21:04;;;;;;;13.25;12.35;;;;;;;;;;5072949;28;20035;-76
2021/10/22 13:23:32;;;;;;;13.40;12.35;;;17.30;99.90;;;;;;5072251;28;20051;-78
2021/10/22 13:26:00;;;;;;;13.02;12.13;;;17.30;99.90;;;;;;5072800;28;20023;-78
2021/10/22 13:28:32;;;;;;;12.52;11.65;;;17.30;99.90;;;;;;5072539;28;20028;-77
2021/10/22 13:31:08;;;;;;;12.63;11.60;;;17.30;99.90;;;;;;5073758;28;20029;-77
2021/10/22 13:33:36;;;;;;;13.43;11.77;;;17.20;99.90;;;;;;5072203;28;20039;-78
2021/10/22 13:36:06;;;;;;;12.75;11.77;;;17.20;99.90;;;;;;5072375;28;20028;-78
2021/10/22 13:38:34;;;;;;;13.27;12.30;;;17.20;99.90;;;;;;5072694;28;20029;-78
2021/10/22 13:41:03;;;;;;;15.02;11.98;;;17.10;99.90;;;;;;5072288;28;20052;-78
2021/10/22 13:43:35;;;;;;;12.70;11.60;;;17.10;99.90;;;;;;5055751;28;20119;-78
2021/10/22 13:46:03;;;;;;;12.95;12.00;;;17.00;99.90;;;;;;5072914;28;20103;-78
2021/10/22 13:48:32;;;;;;;13.40;12.50;;;17.00;99.90;;;;;;5072680;28;20021;-78
2021/10/22 13:51:00;;;;;;;12.73;12.00;;;17.00;99.90;;;;;;5073643;28;20024;-78
2021/10/22 13:53:27;;;;;;;13.43;12.32;;;17.00;99.90;;;;;;5073333;28;20035;-78
2021/10/22 13:55:55;;;;;;;12.52;11.82;;;16.90;99.90;;;;;;5071928;28;20035;-78
2021/10/22 13:58:23;;;;;;;12.68;11.82;;;16.90;99.90;;;;;;5073558;28;20025;-78
2021/10/22 14:00:50;;;;;;;13.30;12.40;;;17.00;99.90;;;;;;5071902;28;20035;-78
2021/10/22 14:03:18;;;;;;;13.00;12.10;;;16.90;99.90;;;;;;5071958;28;20027;-78
2021/10/22 14:05:45;;;;;;;13.35;12.30;;;16.90;99.90;;;;;;5073226;28;20027;-78
2021/10/22 14:08:13;;;;;;;13.80;12.68;;;16.90;99.90;;;;;;5072135;28;20111;-78
2021/10/22 14:10:43;;;;;;;13.15;12.30;;;16.90;99.90;;;;;;5071860;28;20062;-77
2021/10/22 14:13:32;;;;;;;12.85;11.95;;;16.80;99.90;;;;;;5073243;28;20105;-78
2021/10/22 14:24:09;;;;;;;13.48;12.55;;;16.80;99.90;;;;;;5077419;28;20070;-78
2021/10/22 14:29:22;;;;;;;13.00;12.13;;;16.80;99.90;;;;;;5077457;28;20066;-78
2021/10/22 14:31:50;;;;;;;12.98;12.10;;;16.70;99.90;;;;;;5075466;28;20077;-78
2021/10/22 14:34:17;;;;;;;13.50;12.50;;;16.60;99.90;;;;;;5077167;28;20409;-78
2021/10/22 14:36:45;;;;;;;13.88;12.95;;;16.60;99.90;;;;;;5075941;28;20029;-77
2021/10/22 14:39:12;;;;;;;13.60;12.80;;;16.60;99.90;;;;;;5076927;28;20370;-78
2021/10/22 14:41:41;;;;;;;14.18;13.15;;;16.50;99.90;;;;;;5075799;28;20021;-78
2021/10/22 14:44:18;;;;;;;13.73;12.77;;;16.60;99.90;;;;;;5075600;28;20020;-78